Time,TemperatureF,DewpointF,PressureIn,WindDirection,WindDirectionDegrees,WindSpeedMPH,WindSpeedGustMPH,Humidity,HourlyPrecipIn,Conditions,Clouds,dailyrainin,SolarRadiationWatts/m^2,SoftwareType,DateUTC
2013-04-03 00:02:00,52.0,37.0,-100.00,WNW,294,0.0,3.0,57,0.00,,,-99.99,0.000000,,2013-04-03 07:02:00,
2013-04-03 00:11:00,52.0,37.0,-100.00,WNW,294,0.0,3.0,57,0.00,,,-99.99,0.000000,,2013-04-03 07:11:00,
2013-04-03 00:33:00,50.0,36.0,-100.00,NNE,24,0.0,3.0,58,0.00,,,-99.99,0.000000,,2013-04-03 07:33:00,
2013-04-03 00:42:00,50.0,36.0,-100.00,NNE,24,0.0,3.0,58,0.00,,,-99.99,0.000000,,2013-04-03 07:42:00,
2013-04-03 00:53:00,50.0,36.0,-100.00,NNE,24,0.0,3.0,58,0.00,,,-99.99,0.000000,,2013-04-03 07:53:00,
2013-04-03 01:02:00,50.0,36.0,-100.00,NNE,24,0.0,3.0,58,0.00,,,-99.99,0.000000,,2013-04-03 08:02:00,
2013-04-03 01:12:00,50.0,36.0,-100.00,NNE,24,0.0,3.0,58,0.00,,,-99.99,0.000000,,2013-04-03 08:12:00,
2013-04-03 01:33:00,52.0,39.0,-100.00,NE,48,0.0,4.0,61,0.00,,,0.00,0.000000,,2013-04-03 08:33:00,
2013-04-03 01:43:00,52.0,39.0,-100.00,NE,48,0.0,4.0,61,0.00,,,0.00,0.000000,,2013-04-03 08:43:00,
2013-04-03 01:52:00,52.0,39.0,-100.00,NE,48,0.0,4.0,61,0.00,,,0.00,0.000000,,2013-04-03 08:52:00,
2013-04-03 02:02:00,52.0,39.0,-100.00,NE,48,0.0,4.0,61,0.00,,,0.00,0.000000,,2013-04-03 09:02:00,
2013-04-03 02:11:00,52.0,39.0,-100.00,NE,48,0.0,4.0,61,0.00,,,0.00,0.000000,,2013-04-03 09:11:00,
2013-04-03 02:43:00,52.0,40.0,-100.00,East,98,0.0,0.0,64,0.00,,,0.00,0.000000,,2013-04-03 09:43:00,
2013-04-03 02:53:00,52.0,40.0,-100.00,East,98,0.0,0.0,64,0.00,,,0.00,0.000000,,2013-04-03 09:53:00,
2013-04-03 03:02:00,52.0,40.0,-100.00,East,98,0.0,0.0,64,0.00,,,0.00,0.000000,,2013-04-03 10:02:00,
2013-04-03 03:12:00,52.0,40.0,-100.00,East,98,0.0,0.0,64,0.00,,,0.00,0.000000,,2013-04-03 10:12:00,
2013-04-03 03:43:00,52.0,40.0,-100.00,WSW,248,0.0,0.0,64,0.00,,,0.00,0.000000,,2013-04-03 10:43:00,
2013-04-03 03:53:00,52.0,40.0,-100.00,WSW,248,0.0,0.0,64,0.00,,,0.00,0.000000,,2013-04-03 10:53:00,
2013-04-03 04:02:00,52.0,40.0,-100.00,WSW,248,0.0,0.0,64,0.00,,,0.00,0.000000,,2013-04-03 11:02:00,
2013-04-03 04:12:00,52.0,40.0,-100.00,WSW,248,0.0,0.0,64,0.00,,,0.00,0.000000,,2013-04-03 11:12:00,
2013-04-03 04:42:00,51.0,34.0,-100.00,WNW,301,0.0,3.0,53,0.00,,,0.00,0.000000,,2013-04-03 11:42:00,
2013-04-03 04:53:00,51.0,34.0,-100.00,WNW,301,0.0,3.0,53,0.00,,,0.00,0.000000,,2013-04-03 11:53:00,
2013-04-03 05:02:00,51.0,34.0,-100.00,WNW,301,0.0,3.0,53,0.00,,,0.00,0.000000,,2013-04-03 12:02:00,
2013-04-03 05:12:00,51.0,34.0,-100.00,WNW,301,0.0,3.0,53,0.00,,,0.00,0.000000,,2013-04-03 12:12:00,
2013-04-03 05:33:00,51.0,35.0,-100.00,NE,36,0.0,4.0,54,0.00,,,-99.99,0.000000,,2013-04-03 12:33:00,
2013-04-03 05:42:00,51.0,35.0,-100.00,NE,36,0.0,4.0,54,0.00,,,-99.99,0.000000,,2013-04-03 12:42:00,
2013-04-03 05:52:00,51.0,35.0,-100.00,NE,36,0.0,4.0,54,0.00,,,-99.99,0.000000,,2013-04-03 12:52:00,
2013-04-03 06:02:00,51.0,35.0,-100.00,NE,36,0.0,4.0,54,0.00,,,-99.99,0.000000,,2013-04-03 13:02:00,
2013-04-03 06:12:00,51.0,35.0,-100.00,NE,36,0.0,4.0,54,0.00,,,-99.99,0.000000,,2013-04-03 13:12:00,
2013-04-03 06:42:00,54.0,36.0,-100.00,WSW,258,0.0,4.0,50,0.00,,,0.00,0.000000,,2013-04-03 13:42:00,
2013-04-03 06:52:00,54.0,36.0,-100.00,WSW,258,0.0,4.0,50,0.00,,,0.00,0.000000,,2013-04-03 13:52:00,
2013-04-03 07:02:00,54.0,36.0,-100.00,WSW,258,0.0,4.0,50,0.00,,,0.00,0.000000,,2013-04-03 14:02:00,
2013-04-03 07:12:00,54.0,36.0,-100.00,WSW,258,0.0,4.0,50,0.00,,,0.00,0.000000,,2013-04-03 14:12:00,
2013-04-03 07:43:00,57.0,35.0,-100.00,NE,39,0.0,4.0,44,0.00,,,0.00,19.000000,,2013-04-03 14:43:00,
2013-04-03 07:52:00,57.0,35.0,-100.00,NE,39,0.0,4.0,44,0.00,,,0.00,19.000000,,2013-04-03 14:52:00,
2013-04-03 08:02:00,57.0,35.0,-100.00,NE,39,0.0,4.0,44,0.00,,,0.00,19.000000,,2013-04-03 15:02:00,
2013-04-03 08:12:00,57.0,35.0,-100.00,NE,39,0.0,4.0,44,0.00,,,0.00,19.000000,,2013-04-03 15:12:00,
2013-04-03 08:43:00,67.0,37.0,-100.00,SSE,155,0.0,4.0,33,0.00,,,0.00,251.000000,,2013-04-03 15:43:00,
2013-04-03 08:53:00,67.0,37.0,-100.00,SSE,155,0.0,4.0,33,0.00,,,0.00,251.000000,,2013-04-03 15:53:00,
2013-04-03 09:44:00,69.0,35.0,-100.00,SSW,202,2.0,5.0,28,0.00,,,0.00,520.000000,,2013-04-03 16:44:00,
2013-04-03 09:52:00,69.0,35.0,-100.00,SSW,202,2.0,5.0,28,0.00,,,0.00,520.000000,,2013-04-03 16:52:00,
2013-04-03 10:02:00,69.0,35.0,-100.00,SSW,202,2.0,5.0,28,0.00,,,0.00,520.000000,,2013-04-03 17:02:00,
2013-04-03 10:12:00,69.0,35.0,-100.00,SSW,202,2.0,5.0,28,0.00,,,0.00,520.000000,,2013-04-03 17:12:00,
2013-04-03 10:34:00,69.0,25.0,-100.00,ENE,69,8.0,14.0,19,0.00,,,0.00,806.000000,,2013-04-03 17:34:00,
2013-04-03 10:46:00,69.0,25.0,-100.00,ENE,69,8.0,14.0,19,0.00,,,0.00,806.000000,,2013-04-03 17:46:00,
2013-04-03 11:12:00,69.0,25.0,-100.00,ENE,69,8.0,14.0,19,0.00,,,0.00,806.000000,,2013-04-03 18:12:00,
2013-04-03 11:34:00,72.0,26.0,-100.00,ENE,72,8.0,16.0,18,0.00,,,0.00,1014.000000,,2013-04-03 18:34:00,
2013-04-03 11:43:00,72.0,26.0,-100.00,ENE,72,8.0,16.0,18,0.00,,,0.00,1014.000000,,2013-04-03 18:43:00,
2013-04-03 11:52:00,72.0,26.0,-100.00,ENE,72,8.0,16.0,18,0.00,,,0.00,1014.000000,,2013-04-03 18:52:00,
2013-04-03 12:02:00,72.0,26.0,-100.00,ENE,72,8.0,16.0,18,0.00,,,0.00,1014.000000,,2013-04-03 19:02:00,
2013-04-03 12:12:00,72.0,26.0,-100.00,ENE,72,8.0,16.0,18,0.00,,,0.00,1014.000000,,2013-04-03 19:12:00,
2013-04-03 12:42:00,76.0,29.0,-100.00,SSE,149,2.0,14.0,18,0.00,,,0.00,1146.000000,,2013-04-03 19:42:00,
2013-04-03 12:52:00,76.0,29.0,-100.00,SSE,149,2.0,14.0,18,0.00,,,0.00,1146.000000,,2013-04-03 19:52:00,
2013-04-03 13:02:00,76.0,29.0,-100.00,SSE,149,2.0,14.0,18,0.00,,,0.00,1146.000000,,2013-04-03 20:02:00,
2013-04-03 13:12:00,76.0,29.0,-100.00,SSE,149,2.0,14.0,18,0.00,,,0.00,1146.000000,,2013-04-03 20:12:00,
2013-04-03 13:42:00,78.0,30.0,-100.00,SSW,198,8.0,36.0,17,0.00,,,0.00,1195.000000,,2013-04-03 20:42:00,
2013-04-03 13:53:00,78.0,30.0,-100.00,SSW,198,8.0,36.0,17,0.00,,,0.00,1195.000000,,2013-04-03 20:53:00,
2013-04-03 14:02:00,78.0,30.0,-100.00,SSW,198,8.0,36.0,17,0.00,,,0.00,1195.000000,,2013-04-03 21:02:00,
2013-04-03 14:12:00,78.0,30.0,-100.00,SSW,198,8.0,36.0,17,0.00,,,0.00,1195.000000,,2013-04-03 21:12:00,
2013-04-03 14:33:00,77.0,22.0,-100.00,East,92,3.0,13.0,13,0.00,,,-99.99,1172.000000,,2013-04-03 21:33:00,
2013-04-03 14:42:00,77.0,22.0,-100.00,East,92,3.0,13.0,13,0.00,,,-99.99,1172.000000,,2013-04-03 21:42:00,
2013-04-03 14:52:00,77.0,22.0,-100.00,East,92,3.0,13.0,13,0.00,,,-99.99,1172.000000,,2013-04-03 21:52:00,
2013-04-03 15:12:00,77.0,22.0,-100.00,East,92,3.0,13.0,13,0.00,,,-99.99,1172.000000,,2013-04-03 22:12:00,
2013-04-03 15:33:00,77.0,29.0,-100.00,WSW,249,8.0,17.0,17,0.00,,,-99.99,1064.000000,,2013-04-03 22:33:00,
2013-04-03 15:42:00,77.0,29.0,-100.00,WSW,249,8.0,17.0,17,0.00,,,-99.99,1064.000000,,2013-04-03 22:42:00,
2013-04-03 15:52:00,77.0,29.0,-100.00,WSW,249,8.0,17.0,17,0.00,,,-99.99,1064.000000,,2013-04-03 22:52:00,
2013-04-03 16:02:00,77.0,29.0,-100.00,WSW,249,8.0,17.0,17,0.00,,,-99.99,1064.000000,,2013-04-03 23:02:00,
2013-04-03 16:11:00,77.0,29.0,-100.00,WSW,249,8.0,17.0,17,0.00,,,-99.99,1064.000000,,2013-04-03 23:11:00,
2013-04-03 16:33:00,77.0,30.0,-100.00,West,261,8.0,18.0,18,0.00,,,0.00,865.000000,,2013-04-03 23:33:00,
2013-04-03 16:43:00,77.0,30.0,-100.00,West,261,8.0,18.0,18,0.00,,,0.00,865.000000,,2013-04-03 23:43:00,
2013-04-03 16:54:00,77.0,30.0,-100.00,West,261,8.0,18.0,18,0.00,,,0.00,865.000000,,2013-04-03 23:54:00,
2013-04-03 17:02:00,77.0,30.0,-100.00,West,261,8.0,18.0,18,0.00,,,0.00,865.000000,,2013-04-04 00:02:00,
2013-04-03 17:12:00,77.0,30.0,-100.00,West,261,8.0,18.0,18,0.00,,,0.00,865.000000,,2013-04-04 00:12:00,
2013-04-03 17:32:00,74.0,40.0,-100.00,WSW,245,9.0,22.0,29,0.00,,,0.00,582.000000,,2013-04-04 00:32:00,
2013-04-03 17:43:00,74.0,40.0,-100.00,WSW,245,9.0,22.0,29,0.00,,,0.00,582.000000,,2013-04-04 00:43:00,
2013-04-03 17:52:00,74.0,40.0,-100.00,WSW,245,9.0,22.0,29,0.00,,,0.00,582.000000,,2013-04-04 00:52:00,
2013-04-03 18:02:00,74.0,40.0,-100.00,WSW,245,9.0,22.0,29,0.00,,,0.00,582.000000,,2013-04-04 01:02:00,
2013-04-03 18:11:00,74.0,40.0,-100.00,WSW,245,9.0,22.0,29,0.00,,,0.00,582.000000,,2013-04-04 01:11:00,
2013-04-03 18:32:00,68.0,41.0,-100.00,SSW,199,5.0,15.0,37,0.00,,,0.00,262.000000,,2013-04-04 01:32:00,
2013-04-03 18:43:00,68.0,41.0,-100.00,SSW,199,5.0,15.0,37,0.00,,,0.00,262.000000,,2013-04-04 01:43:00,
2013-04-03 18:52:00,68.0,41.0,-100.00,SSW,199,5.0,15.0,37,0.00,,,0.00,262.000000,,2013-04-04 01:52:00,
2013-04-03 19:02:00,68.0,41.0,-100.00,SSW,199,5.0,15.0,37,0.00,,,0.00,262.000000,,2013-04-04 02:02:00,
2013-04-03 19:11:00,68.0,41.0,-100.00,SSW,199,5.0,15.0,37,0.00,,,0.00,262.000000,,2013-04-04 02:11:00,
2013-04-03 20:02:00,62.0,41.0,-100.00,SW,236,4.0,10.0,46,0.00,,,0.00,43.000000,,2013-04-04 03:02:00,
2013-04-03 20:11:00,62.0,41.0,-100.00,SW,236,4.0,10.0,46,0.00,,,0.00,43.000000,,2013-04-04 03:11:00,
2013-04-03 20:34:00,60.0,43.0,-100.00,NW,312,0.0,7.0,53,0.00,,,0.00,0.000000,,2013-04-04 03:34:00,
2013-04-03 20:45:00,60.0,43.0,-100.00,NW,312,0.0,7.0,53,0.00,,,0.00,0.000000,,2013-04-04 03:45:00,
2013-04-03 20:53:00,60.0,43.0,-100.00,NW,312,0.0,7.0,53,0.00,,,0.00,0.000000,,2013-04-04 03:53:00,
2013-04-03 21:02:00,60.0,43.0,-100.00,NW,312,0.0,7.0,53,0.00,,,0.00,0.000000,,2013-04-04 04:02:00,
2013-04-03 21:12:00,60.0,43.0,-100.00,NW,312,0.0,7.0,53,0.00,,,0.00,0.000000,,2013-04-04 04:12:00,
2013-04-03 21:43:00,58.0,40.0,-100.00,WNW,290,0.0,0.0,51,0.00,,,0.00,0.000000,,2013-04-04 04:43:00,
2013-04-03 21:53:00,58.0,40.0,-100.00,WNW,290,0.0,0.0,51,0.00,,,0.00,0.000000,,2013-04-04 04:53:00,
2013-04-03 22:02:00,58.0,40.0,-100.00,WNW,290,0.0,0.0,51,0.00,,,0.00,0.000000,,2013-04-04 05:02:00,
2013-04-03 22:12:00,58.0,40.0,-100.00,WNW,290,0.0,0.0,51,0.00,,,0.00,0.000000,,2013-04-04 05:12:00,
2013-04-03 22:32:00,58.0,34.0,-100.00,West,268,0.0,0.0,41,0.00,,,0.00,0.000000,,2013-04-04 05:32:00,
2013-04-03 22:42:00,58.0,34.0,-100.00,West,268,0.0,0.0,41,0.00,,,0.00,0.000000,,2013-04-04 05:42:00,
2013-04-03 22:52:00,58.0,34.0,-100.00,West,268,0.0,0.0,41,0.00,,,0.00,0.000000,,2013-04-04 05:52:00,
2013-04-03 23:02:00,58.0,34.0,-100.00,West,268,0.0,0.0,41,0.00,,,0.00,0.000000,,2013-04-04 06:02:00,
2013-04-03 23:12:00,58.0,34.0,-100.00,West,268,0.0,0.0,41,0.00,,,0.00,0.000000,,2013-04-04 06:12:00,
2013-04-03 23:33:00,56.0,37.0,-100.00,WNW,290,0.0,5.0,49,0.00,,,0.00,0.000000,,2013-04-04 06:33:00,
2013-04-03 23:42:00,56.0,37.0,-100.00,WNW,290,0.0,5.0,49,0.00,,,0.00,0.000000,,2013-04-04 06:42:00,
2013-04-03 23:52:00,56.0,37.0,-100.00,WNW,290,0.0,5.0,49,0.00,,,0.00,0.000000,,2013-04-04 06:52:00,